Archival Weather

Chicago O'Hare International

Chicago, Illinois (KORD)

Report from: Sunday, March 6, 2022 1:51 PM CST
Current time: Saturday, February 4, 2023 11:04 PM CST

Current weather
Weather history
Weather forecast

Temperature3.9°C (39.0°F)
Wind chill-0.8°C (30.6°F)
Dew point-2.8°C (27.0°F)
Winds 13 kts (6.7 m/s, 15 mph) West (270°)
Wind gusts 21 kts (10.8 m/s, 24.2 mph)
Visibility10 mi. (16.1 km)
Clouds Few clouds 2,600 ft. (792 m)
Ceiling: Broken clouds 25,000 ft. (7,620 m)
Altimeter30.02 in.Hg (1017 mB)
Relative humidity62 %
Density altitude-1,381 ft. (-421 m)
Sea-level pressure101.7 kPa (1017 mB, 30.03 in.Hg)
Remarks Corrected report
System requires maintenance
Automated weather observing station with precipitation discriminator
Flight conditions Visual Meteorological Conditions
Raw dataKORD 061951Z COR 27013G21KT 10SM FEW026 BKN250 04/M03 A3002 RMK AO2 SLP168 T00391028 $
An unhandled exception has occurred. See browser dev tools for details. Reload 🗙